sensor_id;sensor_type;location;lat;lon;timestamp;P1;durP1;ratioP1;P2;durP2;ratioP2
14939;SDS011;11825;51.898;8.202;2024-01-15T00:05:16;21.47;;;14.50;;
14939;SDS011;11825;51.898;8.202;2024-01-15T00:10:43;23.97;;;15.53;;
14939;SDS011;11825;51.898;8.202;2024-01-15T00:15:51;20.33;;;11.00;;
14939;SDS011;11825;51.898;8.202;2024-01-15T00:21:12;17.20;;;11.53;;
14939;SDS011;11825;51.898;8.202;2024-01-15T00:26:19;15.07;;;12.00;;
14939;SDS011;11825;51.898;8.202;2024-01-15T00:31:42;15.50;;;11.33;;
14939;SDS011;11825;51.898;8.202;2024-01-15T00:53:10;15.47;;;10.53;;
14939;SDS011;11825;51.898;8.202;2024-01-15T00:58:26;13.10;;;10.20;;
14939;SDS011;11825;51.898;8.202;2024-01-15T01:03:42;13.83;;;10.50;;
14939;SDS011;11825;51.898;8.202;2024-01-15T01:08:55;13.93;;;10.17;;
14939;SDS011;11825;51.898;8.202;2024-01-15T01:14:01;15.87;;;10.57;;
14939;SDS011;11825;51.898;8.202;2024-01-15T01:19:31;14.33;;;9.47;;
14939;SDS011;11825;51.898;8.202;2024-01-15T01:24:36;14.73;;;10.67;;
14939;SDS011;11825;51.898;8.202;2024-01-15T01:29:53;14.03;;;11.10;;
14939;SDS011;11825;51.898;8.202;2024-01-15T01:34:56;17.33;;;11.10;;
14939;SDS011;11825;51.898;8.202;2024-01-15T01:40:15;15.40;;;10.00;;
14939;SDS011;11825;51.898;8.202;2024-01-15T01:45:30;14.77;;;9.77;;
14939;SDS011;11825;51.898;8.202;2024-01-15T01:50:41;16.03;;;10.70;;
14939;SDS011;11825;51.898;8.202;2024-01-15T01:55:47;13.73;;;9.90;;
14939;SDS011;11825;51.898;8.202;2024-01-15T02:01:00;18.00;;;10.20;;
14939;SDS011;11825;51.898;8.202;2024-01-15T02:17:28;19.23;;;10.87;;
14939;SDS011;11825;51.898;8.202;2024-01-15T02:22:42;20.50;;;12.90;;
14939;SDS011;11825;51.898;8.202;2024-01-15T02:27:54;16.83;;;10.77;;
14939;SDS011;11825;51.898;8.202;2024-01-15T02:33:24;19.03;;;11.83;;
14939;SDS011;11825;51.898;8.202;2024-01-15T02:38:38;17.33;;;10.93;;
14939;SDS011;11825;51.898;8.202;2024-01-15T02:44:01;18.60;;;10.90;;
14939;SDS011;11825;51.898;8.202;2024-01-15T02:49:23;17.83;;;10.97;;
14939;SDS011;11825;51.898;8.202;2024-01-15T02:54:52;14.83;;;9.97;;
14939;SDS011;11825;51.898;8.202;2024-01-15T02:59:59;15.77;;;10.07;;
14939;SDS011;11825;51.898;8.202;2024-01-15T03:05:26;20.27;;;10.67;;
14939;SDS011;11825;51.898;8.202;2024-01-15T03:10:48;19.03;;;11.33;;
14939;SDS011;11825;51.898;8.202;2024-01-15T03:15:56;19.37;;;13.93;;
14939;SDS011;11825;51.898;8.202;2024-01-15T03:21:35;21.10;;;11.70;;
14939;SDS011;11825;51.898;8.202;2024-01-15T03:26:57;21.03;;;10.97;;
14939;SDS011;11825;51.898;8.202;2024-01-15T03:32:16;16.70;;;11.20;;
14939;SDS011;11825;51.898;8.202;2024-01-15T03:37:30;15.13;;;9.67;;
14939;SDS011;11825;51.898;8.202;2024-01-15T03:42:37;17.23;;;9.67;;
14939;SDS011;11825;51.898;8.202;2024-01-15T03:47:56;12.53;;;9.23;;
14939;SDS011;11825;51.898;8.202;2024-01-15T03:53:30;17.17;;;9.50;;
14939;SDS011;11825;51.898;8.202;2024-01-15T03:58:52;18.13;;;10.23;;
14939;SDS011;11825;51.898;8.202;2024-01-15T04:04:12;18.60;;;10.20;;
14939;SDS011;11825;51.898;8.202;2024-01-15T04:09:37;16.53;;;10.57;;
14939;SDS011;11825;51.898;8.202;2024-01-15T04:15:07;16.43;;;11.50;;
14939;SDS011;11825;51.898;8.202;2024-01-15T04:20:25;17.60;;;11.17;;
14939;SDS011;11825;51.898;8.202;2024-01-15T04:25:43;13.67;;;10.57;;
14939;SDS011;11825;51.898;8.202;2024-01-15T04:30:47;15.97;;;10.57;;
14939;SDS011;11825;51.898;8.202;2024-01-15T04:36:02;17.83;;;10.17;;
14939;SDS011;11825;51.898;8.202;2024-01-15T04:41:22;13.80;;;8.87;;
14939;SDS011;11825;51.898;8.202;2024-01-15T04:46:50;18.80;;;8.90;;
14939;SDS011;11825;51.898;8.202;2024-01-15T04:52:03;10.37;;;7.63;;
14939;SDS011;11825;51.898;8.202;2024-01-15T04:57:26;14.13;;;8.10;;
14939;SDS011;11825;51.898;8.202;2024-01-15T05:02:46;11.83;;;8.63;;
14939;SDS011;11825;51.898;8.202;2024-01-15T05:08:08;10.47;;;7.90;;
14939;SDS011;11825;51.898;8.202;2024-01-15T05:13:24;11.53;;;7.47;;
14939;SDS011;11825;51.898;8.202;2024-01-15T05:18:40;14.33;;;7.80;;
14939;SDS011;11825;51.898;8.202;2024-01-15T05:24:14;18.40;;;10.33;;
14939;SDS011;11825;51.898;8.202;2024-01-15T05:29:31;15.97;;;8.77;;
14939;SDS011;11825;51.898;8.202;2024-01-15T05:34:37;15.80;;;10.30;;
14939;SDS011;11825;51.898;8.202;2024-01-15T05:40:03;10.90;;;9.13;;
14939;SDS011;11825;51.898;8.202;2024-01-15T05:45:15;17.10;;;10.23;;
14939;SDS011;11825;51.898;8.202;2024-01-15T05:50:39;15.80;;;10.17;;
14939;SDS011;11825;51.898;8.202;2024-01-15T05:56:03;11.27;;;8.77;;
14939;SDS011;11825;51.898;8.202;2024-01-15T06:01:18;20.73;;;9.80;;
14939;SDS011;11825;51.898;8.202;2024-01-15T06:06:32;21.97;;;11.93;;
14939;SDS011;11825;51.898;8.202;2024-01-15T06:12:13;15.00;;;10.93;;
14939;SDS011;11825;51.898;8.202;2024-01-15T06:17:38;14.27;;;9.70;;
14939;SDS011;11825;51.898;8.202;2024-01-15T06:29:26;10.47;;;8.07;;
14939;SDS011;11825;51.898;8.202;2024-01-15T06:41:34;10.63;;;7.60;;
14939;SDS011;11825;51.898;8.202;2024-01-15T06:47:06;9.57;;;7.13;;
14939;SDS011;11825;51.898;8.202;2024-01-15T06:52:31;10.43;;;7.97;;
14939;SDS011;11825;51.898;8.202;2024-01-15T07:02:57;11.10;;;6.33;;
14939;SDS011;11825;51.898;8.202;2024-01-15T07:08:14;8.83;;;6.43;;
14939;SDS011;11825;51.898;8.202;2024-01-15T07:13:59;9.97;;;5.60;;
14939;SDS011;11825;51.898;8.202;2024-01-15T07:19:06;12.53;;;5.97;;
14939;SDS011;11825;51.898;8.202;2024-01-15T07:29:39;9.67;;;5.93;;
14939;SDS011;11825;51.898;8.202;2024-01-15T07:35:24;11.23;;;5.60;;
14939;SDS011;11825;51.898;8.202;2024-01-15T07:40:38;8.43;;;6.47;;
14939;SDS011;11825;51.898;8.202;2024-01-15T07:45:51;6.70;;;5.97;;
14939;SDS011;11825;51.898;8.202;2024-01-15T07:51:05;13.33;;;7.33;;
14939;SDS011;11825;51.898;8.202;2024-01-15T07:56:17;10.87;;;6.67;;
14939;SDS011;11825;51.898;8.202;2024-01-15T08:01:44;10.20;;;5.83;;
14939;SDS011;11825;51.898;8.202;2024-01-15T09:08:10;12.37;;;6.57;;
14939;SDS011;11825;51.898;8.202;2024-01-15T09:13:43;14.00;;;6.67;;
14939;SDS011;11825;51.898;8.202;2024-01-15T09:19:21;18.53;;;6.30;;
14939;SDS011;11825;51.898;8.202;2024-01-15T13:59:57;3.57;;;3.03;;
14939;SDS011;11825;51.898;8.202;2024-01-15T16:18:18;4.70;;;2.53;;
14939;SDS011;11825;51.898;8.202;2024-01-15T16:24:05;2.70;;;2.17;;
14939;SDS011;11825;51.898;8.202;2024-01-15T16:29:23;4.77;;;1.77;;
14939;SDS011;11825;51.898;8.202;2024-01-15T21:42:42;6.13;;;3.70;;
14939;SDS011;11825;51.898;8.202;2024-01-15T22:09:26;10.03;;;2.53;;
14939;SDS011;11825;51.898;8.202;2024-01-15T22:14:38;37.87;;;23.70;;
